Time;durP1;ratioP1;P1;durP2;ratioP2;P2;SDS_P1;SDS_P2;PMS_P1;PMS_P2;Temp;Humidity;BMP_temperature;BMP_pressure;BME280_temperature;BME280_humidity;BME280_pressure;Samples;Min_cycle;Max_cycle;Signal;HPM_P1;HPM_P2
2022/08/29 00:01:34;;;;;;;4.78;2.00;;;;;;;14.26;68.57;102081.84;5082545;28;20044;-74
2022/08/29 00:04:02;;;;;;;4.90;1.95;;;;;;;14.21;68.47;102073.13;5082117;28;20073;-73
2022/08/29 00:06:29;;;;;;;4.82;1.90;;;;;;;14.17;68.16;102076.78;5081131;28;20541;-73
2022/08/29 00:08:56;;;;;;;6.43;1.85;;;;;;;14.10;68.23;102073.41;5087290;28;20036;-73
2022/08/29 00:11:27;;;;;;;4.95;1.52;;;;;;;14.06;68.45;102069.06;5082021;28;20131;-73
2022/08/29 00:13:54;;;;;;;3.70;1.60;;;;;;;14.01;68.38;102070.09;5084651;28;20188;-73
2022/08/29 00:16:21;;;;;;;5.72;1.83;;;;;;;13.95;68.58;102066.72;5076670;28;20611;-73
2022/08/29 00:18:48;;;;;;;4.78;1.58;;;;;;;13.90;68.85;102065.06;5085465;28;20037;-73
2022/08/29 00:21:15;;;;;;;3.33;1.85;;;;;;;13.82;68.96;102063.50;5084157;28;20135;-72
2022/08/29 00:23:44;;;;;;;3.25;1.70;;;;;;;13.75;68.74;102061.88;5088648;28;20037;-72
2022/08/29 00:26:12;;;;;;;4.88;1.60;;;;;;;13.70;69.21;102065.53;5088872;28;20049;-74
2022/08/29 00:28:39;;;;;;;3.97;1.58;;;;;;;13.63;69.28;102064.84;5087869;28;20520;-72
2022/08/29 00:31:06;;;;;;;5.38;1.67;;;;;;;13.56;69.33;102063.22;5080303;28;20044;-72
2022/08/29 00:33:33;;;;;;;5.78;1.80;;;;;;;13.50;69.57;102064.25;5088367;28;20120;-72
2022/08/29 00:36:03;;;;;;;6.45;2.00;;;;;;;13.44;69.40;102059.09;5081630;28;20037;-71
2022/08/29 00:38:30;;;;;;;2.97;1.70;;;;;;;13.38;69.50;102065.38;5080789;28;20129;-71
2022/08/29 00:40:57;;;;;;;6.38;1.90;;;;;;;13.33;69.63;102067.22;5079554;28;20037;-72
2022/08/29 00:43:30;;;;;;;7.07;1.70;;;;;;;13.29;69.93;102060.28;5085538;28;20040;-71
2022/08/29 00:46:42;;;;;;;5.10;2.00;;;;;;;13.21;70.06;102076.31;5078139;28;20044;-72
2022/08/29 00:49:23;;;;;;;3.78;1.70;;;;;;;13.18;70.19;102076.38;5087933;28;20531;-71
2022/08/29 00:51:52;;;;;;;6.63;2.03;;;;;;;13.12;70.32;102071.22;5084418;28;20037;-71
2022/08/29 00:54:21;;;;;;;5.22;2.20;;;;;;;13.09;70.39;102077.47;5085305;28;20077;-71
2022/08/29 00:56:52;;;;;;;5.03;2.10;;;;;;;13.08;70.58;102083.66;5084413;28;20047;-76
2022/08/29 00:59:25;;;;;;;3.92;1.90;;;;;;;13.09;70.68;102077.47;5079246;28;20487;-77
2022/08/29 01:02:31;;;;;;;5.13;2.30;;;;;;;13.10;71.18;102071.28;5081680;28;20570;-75
2022/08/29 01:05:04;;;;;;;2.95;1.65;;;;;;;13.07;70.75;102076.63;5072529;28;21452;-76
2022/08/29 01:12:22;;;;;;;4.40;2.05;;;;;;;12.95;70.57;102069.81;5088522;28;20491;-73
2022/08/29 01:14:59;;;;;;;3.78;1.88;;;;;;;12.94;70.49;102075.13;5081894;28;20067;-74
2022/08/29 01:17:35;;;;;;;6.63;1.80;;;;;;;12.93;71.22;102071.63;5089025;28;20044;-73
2022/08/29 01:20:24;;;;;;;5.45;1.92;;;;;;;12.87;71.39;102064.69;5080746;28;20455;-73
2022/08/29 01:22:59;;;;;;;5.72;2.00;;;;;;;12.83;71.21;102070.94;5081141;28;20036;-72
2022/08/29 01:25:35;;;;;;;4.45;1.92;;;;;;;12.78;71.64;102074.56;5084575;28;20045;-72
2022/08/29 01:28:25;;;;;;;5.13;2.03;;;;;;;12.76;71.56;102071.97;5084006;28;20056;-73
2022/08/29 01:31:22;;;;;;;7.15;2.10;;;;;;;12.72;71.39;102080.84;5083954;28;20145;-73
2022/08/29 01:34:12;;;;;;;4.50;2.10;;;;;;;12.68;71.45;102082.69;5085341;28;20037;-74
2022/08/29 01:36:52;;;;;;;5.63;2.10;;;;;;;12.66;71.40;102088.91;5082672;28;20124;-73
2022/08/29 01:39:26;;;;;;;5.68;2.13;;;;;;;12.64;71.54;102080.13;5086325;28;20767;-72
2022/08/29 01:41:56;;;;;;;4.63;2.03;;;;;;;12.62;71.43;102079.28;5084703;28;20036;-72
2022/08/29 01:44:25;;;;;;;6.70;2.78;;;;;;;12.61;72.01;102083.72;5078704;28;20064;-72
2022/08/29 01:46:56;;;;;;;8.05;2.60;;;;;;;12.65;72.30;102087.16;5076173;28;20041;-72
2022/08/29 01:49:32;;;;;;;8.38;2.75;;;;;;;12.66;72.41;102084.50;5074451;28;20131;-73
2022/08/29 01:52:00;;;;;;;7.03;2.67;;;;;;;12.70;72.52;102082.69;5087752;28;20119;-72
2022/08/29 01:54:30;;;;;;;3.83;2.40;;;;;;;12.71;72.44;102082.63;5080059;28;20515;-72
2022/08/29 01:56:57;;;;;;;6.00;2.60;;;;;;;12.74;72.77;102073.75;5078865;28;20597;-72
2022/08/29 01:59:27;;;;;;;6.55;3.22;;;;;;;12.78;74.04;102071.91;5074885;28;20048;-72
2022/08/29 02:02:16;;;;;;;8.02;3.55;;;;;;;12.86;75.15;102072.66;5086568;28;20124;-72
2022/08/29 02:04:46;;;;;;;7.35;3.30;;;;;;;12.88;75.61;102084.06;5072546;28;20969;-74
2022/08/29 02:07:19;;;;;;;12.45;3.38;;;;;;;12.87;75.71;102083.22;5083078;28;20048;-73
2022/08/29 02:09:47;;;;;;;7.05;3.40;;;;;;;12.87;76.14;102085.00;5072442;28;20040;-73
2022/08/29 02:12:15;;;;;;;8.05;3.05;;;;;;;12.86;76.43;102080.59;5086337;28;20040;-74
2022/08/29 02:14:43;;;;;;;6.80;2.80;;;;;;;12.87;76.59;102079.69;5084285;28;20061;-74
2022/08/29 02:17:10;;;;;;;7.13;2.85;;;;;;;12.87;76.69;102080.56;5078581;28;20067;-74
2022/08/29 02:19:38;;;;;;;13.05;3.15;;;;;;;12.88;76.77;102082.31;5085010;28;20042;-72
2022/08/29 02:22:07;;;;;;;8.95;3.03;;;;;;;12.89;76.26;102077.88;5078609;28;20045;-73
2022/08/29 02:24:34;;;;;;;5.20;2.38;;;;;;;12.86;75.77;102084.09;5083730;28;20044;-75
2022/08/29 02:27:02;;;;;;;5.28;2.60;;;;;;;12.82;75.61;102077.13;5082794;28;20049;-72
2022/08/29 02:29:29;;;;;;;6.30;2.67;;;;;;;12.77;75.60;102079.00;5082345;28;20039;-72
2022/08/29 02:32:12;;;;;;;6.25;2.70;;;;;;;12.78;75.91;102077.22;5081697;28;20114;-72
2022/08/29 02:34:45;;;;;;;6.45;2.70;;;;;;;12.74;75.97;102079.06;5079259;28;20036;-73
2022/08/29 02:37:20;;;;;;;10.05;2.95;;;;;;;12.67;76.35;102080.09;5075666;28;20072;-73
2022/08/29 02:39:47;;;;;;;4.88;2.50;;;;;;;12.62;76.35;102076.63;5081349;28;20037;-74
2022/08/29 02:42:14;;;;;;;7.03;3.05;;;;;;;12.58;76.54;102078.47;5081458;28;20047;-75
2022/08/29 02:44:41;;;;;;;5.63;2.95;;;;;;;12.54;76.66;102087.38;5084690;28;20044;-73
2022/08/29 02:47:09;;;;;;;8.32;2.80;;;;;;;12.54;76.97;102088.25;5077224;28;20136;-73
2022/08/29 02:49:37;;;;;;;8.63;2.95;;;;;;;12.54;77.21;102088.25;5072793;28;20548;-73
2022/08/29 02:52:07;;;;;;;6.95;2.90;;;;;;;12.49;77.78;102086.59;5073764;28;20603;-73
2022/08/29 02:54:34;;;;;;;7.97;2.80;;;;;;;12.43;77.88;102096.38;5082775;28;20043;-75
2022/08/29 02:57:03;;;;;;;5.63;2.95;;;;;;;12.42;77.84;102093.75;5080690;28;20124;-75
2022/08/29 02:59:30;;;;;;;7.38;2.75;;;;;;;12.40;78.13;102090.28;5089993;28;20423;-76
2022/08/29 03:01:57;;;;;;;6.28;3.17;;;;;;;12.37;78.11;102095.63;5087006;28;20112;-76
2022/08/29 03:04:26;;;;;;;7.97;3.17;;;;;;;12.35;78.45;102095.66;5080008;28;20036;-76
2022/08/29 03:06:53;;;;;;;4.97;2.92;;;;;;;12.36;78.20;102096.53;5080762;28;20127;-75
2022/08/29 03:09:20;;;;;;;6.25;3.00;;;;;;;12.36;78.00;102088.59;5080834;28;20045;-72
2022/08/29 03:11:47;;;;;;;5.50;2.70;;;;;;;12.35;78.17;102086.84;5079622;28;20536;-73
2022/08/29 03:14:14;;;;;;;7.38;2.75;;;;;;;12.38;77.98;102089.44;5078007;28;20041;-71
2022/08/29 03:16:42;;;;;;;6.70;3.08;;;;;;;12.39;77.82;102086.75;5076247;28;20180;-71
2022/08/29 03:19:09;;;;;;;4.95;2.90;;;;;;;12.38;77.99;102090.28;5082125;28;20048;-71
2022/08/29 03:21:36;;;;;;;7.40;3.20;;;;;;;12.39;77.65;102083.25;5078436;28;20052;-74
2022/08/29 03:24:03;;;;;;;5.80;2.85;;;;;;;12.36;77.59;102086.78;5076683;28;20124;-73
2022/08/29 03:26:30;;;;;;;5.85;3.20;;;;;;;12.37;78.03;102085.03;5086937;28;20124;-70
2022/08/29 03:28:57;;;;;;;8.48;3.10;;;;;;;12.32;78.15;102081.59;5077240;28;20098;-70
2022/08/29 03:31:24;;;;;;;13.18;3.35;;;;;;;12.31;78.13;102075.44;5075628;28;20102;-73
2022/08/29 03:33:52;;;;;;;7.25;2.83;;;;;;;12.32;78.08;102077.19;5083982;28;20033;-73
2022/08/29 03:36:19;;;;;;;6.88;2.83;;;;;;;12.35;78.37;102076.25;5076001;28;20056;-73
2022/08/29 03:38:47;;;;;;;6.32;3.35;;;;;;;12.37;78.55;102075.31;5083539;28;20048;-75
2022/08/29 03:41:27;;;;;;;10.80;3.35;;;;;;;12.42;78.58;102076.13;5082133;28;20072;-74
2022/08/29 03:43:56;;;;;;;7.90;3.17;;;;;;;12.40;78.79;102071.78;5081181;28;20589;-75
2022/08/29 03:46:24;;;;;;;6.60;2.72;;;;;;;12.39;78.84;102076.19;5080301;28;20033;-75
2022/08/29 03:48:52;;;;;;;7.05;3.35;;;;;;;12.40;78.59;102070.00;5083703;28;20091;-75
2022/08/29 03:51:21;;;;;;;4.93;2.88;;;;;;;12.40;78.20;102074.41;5087098;28;20047;-74
2022/08/29 03:53:51;;;;;;;6.03;3.13;;;;;;;12.38;78.12;102073.56;5077620;28;20440;-75
2022/08/29 03:56:18;;;;;;;5.28;3.05;;;;;;;12.35;78.01;102068.34;5080448;28;20120;-74
2022/08/29 03:58:47;;;;;;;7.00;3.20;;;;;;;12.31;77.74;102069.31;5082715;28;20120;-73
2022/08/29 04:01:23;;;;;;;7.60;3.42;;;;;;;12.26;77.77;102064.97;5081088;28;20590;-73
2022/08/29 04:03:52;;;;;;;7.63;3.00;;;;;;;12.25;77.57;102070.28;5086140;28;20090;-73
2022/08/29 04:06:22;;;;;;;7.43;3.50;;;;;;;12.22;77.22;102063.25;5080930;28;20104;-74
2022/08/29 04:08:51;;;;;;;7.97;3.08;;;;;;;12.21;77.13;102072.06;5079074;28;20077;-74
2022/08/29 04:11:22;;;;;;;5.55;2.75;;;;;;;12.18;77.15;102066.88;5079223;28;20087;-73
2022/08/29 04:13:52;;;;;;;7.78;2.88;;;;;;;12.13;76.92;102076.63;5080978;28;20092;-74
2022/08/29 04:16:24;;;;;;;7.63;3.05;;;;;;;12.10;77.00;102074.06;5076660;28;20114;-73
2022/08/29 04:18:58;;;;;;;5.00;3.30;;;;;;;12.04;77.06;102069.75;5077358;28;20035;-73
2022/08/29 04:21:25;;;;;;;5.47;3.00;;;;;;;12.01;77.04;102074.19;5082126;28;20033;-73
2022/08/29 04:23:53;;;;;;;8.02;3.28;;;;;;;11.96;77.49;102075.13;5083427;28;20040;-73
2022/08/29 04:26:21;;;;;;;7.05;3.47;;;;;;;11.95;77.14;102075.16;5082014;28;20132;-73
2022/08/29 04:29:10;;;;;;;12.20;3.22;;;;;;;11.93;77.50;102075.16;5082919;28;20049;-72
2022/08/29 04:31:42;;;;;;;7.07;3.07;;;;;;;11.93;77.65;102071.66;5078861;28;20120;-71
2022/08/29 04:34:12;;;;;;;8.73;3.17;;;;;;;11.92;77.96;102065.50;5084878;28;20043;-70
2022/08/29 04:36:43;;;;;;;7.80;3.22;;;;;;;11.93;78.27;102074.31;5086856;28;20064;-70
2022/08/29 04:39:12;;;;;;;14.20;3.40;;;;;;;11.92;78.47;102070.78;5081072;28;20053;-71
2022/08/29 04:41:41;;;;;;;7.28;3.03;;;;;;;11.92;78.70;102070.78;5086940;28;20044;-71
2022/08/29 04:44:10;;;;;;;8.63;3.40;;;;;;;11.91;78.64;102078.75;5083410;28;20125;-71
2022/08/29 04:46:38;;;;;;;6.30;2.88;;;;;;;11.91;78.86;102070.81;5086819;28;20064;-71
2022/08/29 04:49:08;;;;;;;6.05;3.13;;;;;;;11.93;78.78;102066.38;5084533;28;20106;-72
2022/08/29 04:51:35;;;;;;;8.25;3.13;;;;;;;11.97;79.15;102073.34;5076053;28;20037;-72
2022/08/29 04:54:05;;;;;;;8.32;3.15;;;;;;;12.09;79.19;102073.19;5083999;28;21256;-72
2022/08/29 04:56:34;;;;;;;7.72;3.10;;;;;;;12.18;78.97;102072.16;5075161;28;20041;-72
2022/08/29 04:59:03;;;;;;;10.18;3.28;;;;;;;12.27;78.89;102068.47;5075218;28;20037;-72
2022/08/29 05:01:31;;;;;;;10.32;3.17;;;;;;;12.37;78.82;102069.19;5085038;28;20041;-73
2022/08/29 05:03:58;;;;;;;5.15;3.00;;;;;;;12.46;78.65;102074.28;5086740;28;20091;-73
2022/08/29 05:06:26;;;;;;;8.90;3.25;;;;;;;12.50;78.38;102073.34;5085285;28;20044;-72
2022/08/29 05:08:53;;;;;;;9.25;3.20;;;;;;;12.56;78.22;102073.22;5084705;28;20134;-72
2022/08/29 05:11:30;;;;;;;7.55;3.05;;;;;;;12.65;77.75;102074.84;5066617;28;20410;-73
2022/08/29 05:13:59;;;;;;;8.60;2.75;;;;;;;12.78;77.82;102075.47;5079967;28;20067;-72
2022/08/29 05:16:29;;;;;;;5.68;3.03;;;;;;;12.83;77.05;102068.28;5085437;28;20052;-72
2022/08/29 05:18:58;;;;;;;6.32;3.13;;;;;;;12.77;76.94;102072.84;5075302;28;20128;-72
2022/08/29 05:21:31;;;;;;;8.63;3.20;;;;;;;12.74;77.14;102089.63;5085029;28;20115;-73
2022/08/29 05:24:06;;;;;;;9.80;3.70;;;;;;;12.73;77.02;102088.78;5081950;28;20053;-72
2022/08/29 05:26:38;;;;;;;8.43;3.58;;;;;;;12.79;76.64;102100.13;5081541;28;20120;-72
2022/08/29 05:29:09;;;;;;;16.75;4.25;;;;;;;12.87;76.59;102095.59;5082326;28;20049;-72
2022/08/29 05:31:40;;;;;;;6.72;3.70;;;;;;;12.88;76.59;102090.25;5079756;28;20048;-72
2022/08/29 05:34:10;;;;;;;6.75;3.08;;;;;;;12.94;76.38;102096.31;5086807;28;20091;-71
2022/08/29 05:36:57;;;;;;;9.98;3.70;;;;;;;12.98;76.59;102098.84;5064643;28;20052;-72
2022/08/29 05:39:25;;;;;;;7.88;3.40;;;;;;;13.05;76.68;102089.91;5090507;28;20040;-72
2022/08/29 05:41:57;;;;;;;14.38;3.45;;;;;;;13.11;76.64;102088.91;5077653;28;20115;-72
2022/08/29 05:44:31;;;;;;;14.93;3.70;;;;;;;13.15;76.42;102087.06;5076340;28;20033;-72
2022/08/29 05:47:08;;;;;;;8.52;2.85;;;;;;;13.16;76.55;102089.66;5075813;28;20119;-72
2022/08/29 05:49:41;;;;;;;7.38;3.15;;;;;;;13.19;76.33;102086.97;5086964;28;20041;-72
2022/08/29 05:52:10;;;;;;;7.78;3.42;;;;;;;13.26;76.08;102086.81;5076768;28;20045;-71
2022/08/29 05:54:41;;;;;;;6.68;2.70;;;;;;;13.32;75.63;102084.06;5081463;28;20152;-72
2022/08/29 05:57:11;;;;;;;6.90;3.00;;;;;;;13.39;75.41;102090.06;5080730;28;20119;-72
2022/08/29 05:59:50;;;;;;;6.57;2.97;;;;;;;13.48;75.12;102087.28;5081989;28;20096;-72
2022/08/29 06:02:20;;;;;;;9.20;3.05;;;;;;;13.57;74.75;102095.00;5079351;28;20043;-72
2022/08/29 06:04:49;;;;;;;7.20;2.67;;;;;;;13.62;74.77;102095.75;5075394;28;20044;-72
2022/08/29 06:07:16;;;;;;;7.22;2.80;;;;;;;13.68;74.64;102105.34;5080757;28;20051;-72
2022/08/29 06:09:44;;;;;;;7.85;3.22;;;;;;;13.75;74.64;102098.97;5081856;28;20045;-72
2022/08/29 06:12:14;;;;;;;7.68;3.72;;;;;;;13.85;74.15;102101.41;5078951;28;20037;-72
2022/08/29 06:14:41;;;;;;;7.05;3.15;;;;;;;13.97;74.18;102115.25;5046643;28;20057;-72
2022/08/29 06:17:17;;;;;;;8.80;3.40;;;;;;;14.11;73.76;102112.28;5049622;28;20061;-72
2022/08/29 06:19:44;;;;;;;10.18;3.53;;;;;;;14.25;73.54;102108.38;5050148;28;20037;-72
2022/08/29 06:22:12;;;;;;;12.65;3.67;;;;;;;14.38;73.29;102115.13;5050880;28;20072;-72
2022/08/29 06:24:39;;;;;;;8.88;3.60;;;;;;;14.53;73.11;102124.44;5051223;28;20034;-71
2022/08/29 06:27:12;;;;;;;9.23;3.65;;;;;;;14.68;72.50;102125.84;5049864;28;20046;-72
2022/08/29 06:29:40;;;;;;;6.15;3.30;;;;;;;14.76;71.90;102123.00;5050956;28;20131;-72
2022/08/29 06:32:11;;;;;;;11.60;4.07;;;;;;;14.85;71.33;102125.41;5042921;28;20050;-72
2022/08/29 06:34:39;;;;;;;9.55;3.30;;;;;;;14.94;70.93;102118.97;5043163;28;20062;-72
2022/08/29 06:37:06;;;;;;;7.43;3.33;;;;;;;15.03;70.88;102128.44;5050881;28;20037;-71
2022/08/29 06:39:34;;;;;;;7.53;3.35;;;;;;;15.18;70.73;102125.34;5051364;28;20844;-72
2022/08/29 06:42:02;;;;;;;9.68;3.45;;;;;;;15.33;70.16;102132.00;5050964;28;20088;-72
2022/08/29 06:44:30;;;;;;;10.85;3.50;;;;;;;15.45;70.37;102128.09;5042926;28;20045;-72
2022/08/29 06:46:58;;;;;;;7.80;3.13;;;;;;;15.62;70.01;102124.03;5051233;28;20038;-72
2022/08/29 06:49:26;;;;;;;6.95;3.30;;;;;;;15.79;69.72;102120.84;5050659;28;20475;-72
2022/08/29 06:51:55;;;;;;;9.85;3.80;;;;;;;15.99;69.00;102130.88;5050751;28;20045;-72
2022/08/29 06:54:27;;;;;;;17.30;3.83;;;;;;;16.18;68.77;102124.97;5049957;28;20512;-72
2022/08/29 06:56:58;;;;;;;11.73;3.60;;;;;;;16.33;68.08;102127.09;5050599;28;20128;-72
2022/08/29 06:59:26;;;;;;;7.38;3.00;;;;;;;16.48;67.40;102128.38;5050769;28;20072;-72
2022/08/29 07:01:56;;;;;;;7.15;2.90;;;;;;;16.62;67.27;102119.91;5040734;28;20124;-72
2022/08/29 07:04:24;;;;;;;7.70;3.13;;;;;;;16.78;65.90;102117.56;5042819;28;20101;-71
2022/08/29 07:06:53;;;;;;;8.02;3.03;;;;;;;16.88;65.72;102112.75;5050332;28;20056;-71
2022/08/29 07:09:20;;;;;;;12.13;3.30;;;;;;;16.97;65.39;102108.91;5050721;28;20116;-72
2022/08/29 07:11:48;;;;;;;9.13;3.35;;;;;;;17.03;65.10;102116.69;5047233;28;20077;-72
2022/08/29 07:14:15;;;;;;;7.18;3.25;;;;;;;17.08;64.74;102120.06;5042602;28;20104;-72
2022/08/29 07:16:42;;;;;;;7.70;3.05;;;;;;;17.10;64.49;102130.63;5050246;28;20066;-72
2022/08/29 07:19:10;;;;;;;7.88;3.20;;;;;;;17.19;64.04;102130.28;5044896;28;20034;-71
2022/08/29 07:21:38;;;;;;;8.23;3.28;;;;;;;17.32;63.99;102144.91;5046845;28;20092;-72
2022/08/29 07:24:07;;;;;;;5.32;3.13;;;;;;;17.40;63.45;102136.59;5049998;28;20045;-71
2022/08/29 07:26:41;;;;;;;6.68;2.92;;;;;;;17.43;63.57;102140.94;5047400;28;20064;-72
2022/08/29 07:29:16;;;;;;;6.22;3.25;;;;;;;17.44;63.33;102140.03;5050160;28;20111;-72
2022/08/29 07:31:44;;;;;;;8.60;3.10;;;;;;;17.45;62.68;102137.28;5048966;28;20539;-71
2022/08/29 07:34:14;;;;;;;9.30;2.67;;;;;;;17.41;62.55;102137.47;5050268;28;20045;-71
2022/08/29 07:36:42;;;;;;;7.78;2.42;;;;;;;17.37;62.30;102140.25;5050189;28;20120;-71
2022/08/29 07:39:16;;;;;;;6.85;2.42;;;;;;;17.39;62.40;102134.88;5049689;28;20128;-71
2022/08/29 07:41:44;;;;;;;7.15;2.50;;;;;;;17.42;62.13;102137.41;5049492;28;20034;-72
2022/08/29 07:44:13;;;;;;;5.72;2.28;;;;;;;17.45;62.20;102139.97;5046123;28;20051;-71
2022/08/29 07:46:41;;;;;;;5.28;2.40;;;;;;;17.57;61.56;102140.41;5046871;28;20073;-71
2022/08/29 07:49:10;;;;;;;5.95;1.98;;;;;;;17.79;60.45;102146.63;5050420;28;20108;-71
2022/08/29 07:51:39;;;;;;;10.90;2.83;;;;;;;17.94;60.08;102142.47;5039506;28;20104;-71
2022/08/29 07:54:15;;;;;;;7.68;2.85;;;;;;;18.12;59.49;102138.19;5053367;28;20590;-71
2022/08/29 07:56:44;;;;;;;9.40;2.70;;;;;;;18.31;59.17;102138.31;5052325;28;20488;-71
2022/08/29 07:59:12;;;;;;;6.68;2.70;;;;;;;18.45;59.24;102145.72;5052844;28;20091;-70
2022/08/29 08:01:39;;;;;;;5.13;2.08;;;;;;;18.54;56.01;102141.78;5053590;28;20073;-71
2022/08/29 08:04:07;;;;;;;6.60;1.80;;;;;;;18.67;54.11;102147.47;5052926;28;20038;-71
2022/08/29 08:06:35;;;;;;;4.88;2.22;;;;;;;18.83;53.56;102133.41;5052311;28;20120;-71
2022/08/29 08:09:04;;;;;;;6.05;2.05;;;;;;;18.99;52.59;102134.50;5052947;28;20512;-71
2022/08/29 08:11:31;;;;;;;5.88;1.92;;;;;;;19.13;51.33;102131.19;5048141;28;20046;-71
2022/08/29 08:13:59;;;;;;;4.28;1.80;;;;;;;19.20;52.11;102137.97;5052920;28;20041;-71
2022/08/29 08:16:28;;;;;;;5.47;2.05;;;;;;;19.36;51.85;102122.09;5044750;28;20057;-71
2022/08/29 08:18:56;;;;;;;7.85;2.20;;;;;;;19.62;51.37;102116.44;5045730;28;20045;-71
2022/08/29 08:21:26;;;;;;;6.78;2.50;;;;;;;19.87;50.77;102113.47;5052070;28;20077;-71
2022/08/29 08:23:54;;;;;;;8.20;2.40;;;;;;;20.02;50.10;102123.41;5049566;28;20079;-71
2022/08/29 08:26:22;;;;;;;6.65;2.63;;;;;;;20.20;49.76;102112.72;5045043;28;20046;-71
2022/08/29 08:28:49;;;;;;;6.63;2.53;;;;;;;20.40;50.19;102114.34;5052481;28;20133;-71
2022/08/29 08:31:17;;;;;;;7.00;2.40;;;;;;;20.59;49.55;102119.63;5052907;28;20037;-71
2022/08/29 08:33:47;;;;;;;7.80;2.90;;;;;;;20.67;49.86;102121.91;5052829;28;20103;-71
2022/08/29 08:36:29;;;;;;;9.52;2.40;;;;;;;20.78;49.00;102122.22;5053466;28;20053;-71
2022/08/29 08:38:58;;;;;;;4.38;1.77;;;;;;;20.99;46.67;102126.50;5052216;28;20527;-71
2022/08/29 08:41:32;;;;;;;5.88;2.10;;;;;;;21.18;45.91;102118.34;5049749;28;20140;-71
2022/08/29 08:44:21;;;;;;;6.32;2.50;;;;;;;21.20;46.38;102122.66;5050755;28;20864;-70
2022/08/29 08:46:53;;;;;;;8.27;1.98;;;;;;;21.40;45.01;102110.84;5040081;28;20061;-70
2022/08/29 08:49:41;;;;;;;6.07;2.10;;;;;;;21.37;44.45;102115.47;5047567;28;20052;-71
2022/08/29 08:52:19;;;;;;;6.25;2.15;;;;;;;21.24;45.03;102118.88;5046134;28;20123;-70
2022/08/29 08:55:04;;;;;;;7.03;1.90;;;;;;;21.06;45.92;102123.41;5050774;28;20048;-71
2022/08/29 08:57:44;;;;;;;9.68;2.72;;;;;;;21.02;47.03;102120.97;5051710;28;20045;-70
2022/08/29 09:00:12;;;;;;;4.88;1.98;;;;;;;21.04;47.11;102121.78;5052880;28;20574;-70
2022/08/29 09:03:16;;;;;;;3.63;2.00;;;;;;;21.18;45.75;102118.34;5051680;28;20037;-70
2022/08/29 09:06:06;;;;;;;7.90;2.35;;;;;;;21.36;45.75;102119.97;5049202;28;20055;-70
2022/08/29 09:08:57;;;;;;;4.22;1.75;;;;;;;21.59;46.16;102120.53;5043234;28;20440;-70
2022/08/29 09:11:40;;;;;;;5.18;2.50;;;;;;;21.74;45.46;102125.97;5048564;28;20128;-71
2022/08/29 09:14:34;;;;;;;10.20;2.40;;;;;;;22.03;45.92;102129.66;5051748;28;20564;-71
2022/08/29 09:17:06;;;;;;;3.30;1.70;;;;;;;22.18;44.53;102126.06;5050085;28;20053;-71
2022/08/29 09:19:34;;;;;;;7.63;2.20;;;;;;;22.33;42.45;102129.63;5051762;28;20037;-71
2022/08/29 09:22:15;;;;;;;4.93;2.00;;;;;;;22.17;42.63;102128.84;5050057;28;20065;-70
2022/08/29 09:24:58;;;;;;;6.70;2.30;;;;;;;21.84;43.70;102122.69;5043420;28;20865;-70
2022/08/29 09:27:30;;;;;;;5.67;2.00;;;;;;;21.68;43.84;102124.50;5042549;28;20088;-71
2022/08/29 09:30:26;;;;;;;5.88;1.90;;;;;;;21.53;44.06;102124.41;5047757;28;20678;-71
2022/08/29 09:33:06;;;;;;;7.47;2.25;;;;;;;21.49;43.67;102136.25;5046843;28;20060;-70
2022/08/29 09:35:46;;;;;;;5.80;2.30;;;;;;;21.49;44.53;102132.72;5047734;28;20619;-70
2022/08/29 09:38:16;;;;;;;5.72;1.98;;;;;;;21.64;44.58;102129.19;5049762;28;20123;-71
2022/08/29 09:40:53;;;;;;;5.55;2.10;;;;;;;22.00;43.96;102119.09;5051560;28;20092;-70
2022/08/29 09:43:39;;;;;;;4.18;2.10;;;;;;;22.19;43.18;102118.88;5048486;28;20570;-71
2022/08/29 09:46:17;;;;;;;4.88;1.88;;;;;;;22.27;42.96;102116.59;5051709;28;20042;-70
2022/08/29 09:49:04;;;;;;;8.95;2.15;;;;;;;22.25;42.61;102112.28;5047603;28;20050;-70
2022/08/29 09:51:37;;;;;;;6.40;2.10;;;;;;;22.13;43.86;102114.72;5041221;28;20045;-71
2022/08/29 09:54:30;;;;;;;5.00;2.03;;;;;;;22.05;43.54;102110.75;5048251;28;20041;-71
2022/08/29 09:57:24;;;;;;;4.30;2.40;;;;;;;21.92;43.68;102113.31;5046381;28;20041;-71
2022/08/29 10:00:14;;;;;;;;;;;;;;;21.83;43.49;102112.00;5037886;28;20516;-71
2022/08/29 10:02:47;;;;;;;4.25;2.10;;;;;;;21.64;44.33;102102.34;5034152;28;19925;-71
2022/08/29 10:05:43;;;;;;;7.95;2.00;;;;;;;21.59;44.07;102114.28;5048097;28;20110;-71
2022/08/29 10:08:34;;;;;;;5.97;2.13;;;;;;;21.28;44.41;102116.88;5050770;28;20038;-70
2022/08/29 10:11:14;;;;;;;7.30;2.20;;;;;;;21.01;45.41;102119.25;5044766;28;20100;-70
2022/08/29 10:13:52;;;;;;;9.30;2.40;;;;;;;20.99;45.52;102114.00;5051029;28;20095;-70
2022/08/29 10:16:47;;;;;;;3.83;1.83;;;;;;;21.02;45.81;102120.97;5050569;28;20066;-70
2022/08/29 10:19:26;;;;;;;3.85;2.10;;;;;;;21.12;46.39;102114.16;5044154;28;20049;-71
2022/08/29 10:22:24;;;;;;;5.47;2.20;;;;;;;21.31;45.83;102116.72;5042728;28;20408;-71
2022/08/29 10:25:02;;;;;;;5.15;2.00;;;;;;;21.35;46.11;102122.75;5050775;28;20107;-71
2022/08/29 10:27:59;;;;;;;5.30;2.25;;;;;;;21.41;46.25;102130.47;5047229;28;20120;-71
2022/08/29 10:30:59;;;;;;;7.85;2.20;;;;;;;21.49;46.19;102125.50;5045186;28;20048;-71
2022/08/29 10:33:40;;;;;;;8.25;2.30;;;;;;;21.63;46.30;102118.53;5047870;28;20049;-71
2022/08/29 10:36:20;;;;;;;5.38;2.50;;;;;;;21.73;45.10;102117.06;5050568;28;20047;-71
2022/08/29 10:39:14;;;;;;;7.55;2.25;;;;;;;21.69;44.97;102121.75;5050332;28;20533;-71
2022/08/29 10:42:13;;;;;;;5.90;2.50;;;;;;;21.64;45.66;102112.22;5030904;28;20057;-70
2022/08/29 10:45:08;;;;;;;8.57;2.40;;;;;;;21.93;45.23;102107.84;5044269;28;20049;-70
2022/08/29 10:48:02;;;;;;;8.13;2.45;;;;;;;22.44;44.45;102110.25;5045197;28;20080;-71
2022/08/29 10:50:51;;;;;;;5.35;2.30;;;;;;;22.79;44.25;102109.03;5054069;28;20057;-71
2022/08/29 10:53:35;;;;;;;5.60;2.63;;;;;;;22.96;44.37;102097.22;5041069;28;20568;-70
2022/08/29 10:56:23;;;;;;;8.15;2.35;;;;;;;23.34;43.69;102101.13;5049640;28;20584;-71
2022/08/29 10:59:42;;;;;;;7.43;2.47;;;;;;;23.87;42.28;102095.84;5044752;28;20046;-71
2022/08/29 11:02:22;;;;;;;5.25;2.28;;;;;;;24.32;41.30;102095.53;5049697;28;20096;-71
2022/08/29 11:04:59;;;;;;;4.70;2.08;;;;;;;24.56;39.25;102087.56;5050129;28;20084;-71
2022/08/29 11:07:38;;;;;;;6.10;2.33;;;;;;;24.26;39.92;102086.06;5041105;28;20049;-71
2022/08/29 11:10:16;;;;;;;7.93;2.13;;;;;;;24.00;40.83;102082.44;5046300;28;20048;-71
2022/08/29 11:13:05;;;;;;;5.60;2.00;;;;;;;24.02;39.81;102078.69;5043683;28;20033;-71
2022/08/29 11:15:46;;;;;;;5.90;1.90;;;;;;;23.63;40.54;102075.00;5044499;28;20099;-71
2022/08/29 11:18:36;;;;;;;9.32;2.33;;;;;;;23.37;41.33;102074.00;5048504;28;20092;-71
2022/08/29 11:21:48;;;;;;;4.22;1.70;;;;;;;23.45;41.88;102069.03;5046058;28;20049;-72
2022/08/29 11:24:19;;;;;;;89.35;9.63;;;;;;;23.32;42.93;102074.31;5035267;28;20152;-71
2022/08/29 11:26:53;;;;;;;8.77;1.95;;;;;;;23.32;43.10;102066.25;5052640;28;20169;-72
2022/08/29 11:29:36;;;;;;;3.33;1.70;;;;;;;23.35;42.51;102076.81;5049268;28;20041;-71
2022/08/29 11:32:19;;;;;;;20.85;3.03;;;;;;;23.22;43.27;102071.38;5054083;28;20045;-72
2022/08/29 11:35:19;;;;;;;9.13;2.10;;;;;;;23.05;43.77;102066.16;5052136;28;20046;-72
2022/08/29 11:38:26;;;;;;;23.92;3.42;;;;;;;22.83;44.13;102067.56;5050965;28;20052;-73
2022/08/29 11:41:19;;;;;;;7.13;2.20;;;;;;;22.60;45.01;102063.59;5052281;28;20045;-72
2022/08/29 11:44:35;;;;;;;18.42;3.00;;;;;;;22.30;45.61;102062.69;5053348;28;20038;-72
2022/08/29 11:47:32;;;;;;;7.40;2.22;;;;;;;22.00;45.70;102063.59;5052221;28;20103;-71
2022/08/29 11:50:27;;;;;;;5.82;1.98;;;;;;;21.84;46.16;102054.69;5042373;28;20046;-71
2022/08/29 11:53:13;;;;;;;14.27;2.60;;;;;;;21.72;46.78;102057.16;5042820;28;20520;-72
2022/08/29 11:56:04;;;;;;;13.57;2.95;;;;;;;22.06;46.76;102058.78;5044094;28;20560;-71
2022/08/29 11:58:31;;;;;;;11.75;2.38;;;;;;;22.35;46.65;102051.66;5052638;28;20096;-71
2022/08/29 12:00:59;;;;;;;10.73;2.15;;;;;;;22.42;46.36;102042.31;5047799;28;20111;-70
2022/08/29 12:03:32;;;;;;;13.85;2.90;;;;;;;22.69;46.02;102051.44;5044993;28;20104;-71